Time;durP1;ratioP1;P1;durP2;ratioP2;P2;SDS_P1;SDS_P2;PMS_P1;PMS_P2;Temp;Humidity;BMP_temperature;BMP_pressure;BME280_temperature;BME280_humidity;BME280_pressure;Samples;Min_cycle;Max_cycle;Signal;HPM_P1;HPM_P2
2021/12/22 00:00:08;;;;;;;256.87;51.20;;;-3.30;99.90;;;;;;5054050;28;20454;-74
2021/12/22 00:02:45;;;;;;;176.37;39.70;;;-3.30;99.90;;;;;;5053420;28;20446;-74
2021/12/22 00:05:16;;;;;;;303.37;45.23;;;-3.40;99.90;;;;;;5056171;28;20472;-74
2021/12/22 00:07:45;;;;;;;401.93;59.03;;;-3.40;99.90;;;;;;5055846;28;20484;-74
2021/12/22 00:10:13;;;;;;;277.67;41.17;;;-3.40;99.90;;;;;;5056861;28;20452;-74
2021/12/22 00:12:41;;;;;;;138.17;37.83;;;-3.40;99.90;;;;;;5056397;28;20441;-74
2021/12/22 00:15:12;;;;;;;200.97;39.23;;;-3.40;99.90;;;;;;5054455;28;20446;-74
2021/12/22 00:17:41;;;;;;;160.77;35.80;;;-3.40;99.90;;;;;;5054462;28;20462;-74
2021/12/22 00:20:11;;;;;;;291.37;50.07;;;-3.40;99.90;;;;;;5056424;28;20438;-74
2021/12/22 00:22:39;;;;;;;231.53;44.87;;;-3.40;99.90;;;;;;5056233;28;20943;-75
2021/12/22 00:25:08;;;;;;;304.87;48.70;;;-3.40;99.90;;;;;;5054484;28;20560;-74
2021/12/22 00:27:36;;;;;;;305.63;45.87;;;-3.40;99.90;;;;;;5055707;28;20462;-75
2021/12/22 00:30:06;;;;;;;348.03;50.33;;;-3.50;99.90;;;;;;5069796;28;20450;-74
2021/12/22 00:32:37;;;;;;;191.27;37.47;;;-3.50;99.90;;;;;;5054241;28;20452;-74
2021/12/22 00:35:07;;;;;;;162.07;50.63;;;-3.50;99.90;;;;;;5054239;28;20490;-74
2021/12/22 00:37:35;;;;;;;265.77;37.80;;;-3.50;99.90;;;;;;5055269;28;20458;-75
2021/12/22 00:40:04;;;;;;;235.10;50.23;;;-3.50;99.90;;;;;;5053926;28;20458;-74
2021/12/22 00:42:32;;;;;;;211.63;38.03;;;-3.50;99.90;;;;;;5054074;28;20461;-74
2021/12/22 00:45:01;;;;;;;296.23;40.60;;;-3.50;99.90;;;;;;5053809;28;21024;-74
2021/12/22 00:47:30;;;;;;;235.57;40.57;;;-3.60;99.90;;;;;;5055476;28;20802;-74
2021/12/22 00:50:01;;;;;;;230.70;40.47;;;-3.50;99.90;;;;;;5054983;28;20818;-74
2021/12/22 00:52:29;;;;;;;236.77;52.33;;;-3.50;99.90;;;;;;5053767;28;20452;-74
2021/12/22 00:54:58;;;;;;;196.30;44.37;;;-3.50;99.90;;;;;;5055130;28;20446;-75
2021/12/22 00:57:26;;;;;;;186.23;34.53;;;-3.60;99.90;;;;;;5053703;28;20462;-74
2021/12/22 00:59:54;;;;;;;122.23;39.53;;;-3.60;99.90;;;;;;5053617;28;20446;-75
2021/12/22 01:02:22;;;;;;;266.23;45.87;;;-3.60;99.90;;;;;;5055347;28;20525;-75
2021/12/22 01:04:50;;;;;;;178.70;35.37;;;-3.60;99.90;;;;;;5055008;28;20470;-74
2021/12/22 01:07:20;;;;;;;294.17;43.17;;;-3.60;99.90;;;;;;5055738;28;20485;-75
2021/12/22 01:09:48;;;;;;;303.67;43.90;;;-3.60;99.90;;;;;;5057528;28;20442;-75
2021/12/22 01:12:17;;;;;;;267.33;45.53;;;-3.60;99.90;;;;;;5053584;28;20536;-75
2021/12/22 01:14:45;;;;;;;254.87;38.50;;;-3.60;99.90;;;;;;5054598;28;20457;-75
2021/12/22 01:17:15;;;;;;;279.50;42.50;;;-3.60;99.90;;;;;;5053819;28;20823;-75
2021/12/22 01:19:51;;;;;;;197.33;37.27;;;-3.60;99.90;;;;;;5053163;28;20824;-74
2021/12/22 01:22:29;;;;;;;122.37;39.30;;;-3.60;99.90;;;;;;5054810;28;20422;-74
2021/12/22 01:25:02;;;;;;;303.20;70.17;;;-3.70;99.90;;;;;;5034477;28;20456;-74
2021/12/22 01:27:34;;;;;;;222.47;48.00;;;-3.70;99.90;;;;;;5046171;28;20476;-75
2021/12/22 01:30:05;;;;;;;277.47;48.63;;;-3.70;99.90;;;;;;5054805;28;20435;-74
2021/12/22 01:32:34;;;;;;;198.53;36.03;;;-3.70;99.90;;;;;;5054279;28;20426;-75
2021/12/22 01:35:04;;;;;;;201.33;43.00;;;-3.70;99.90;;;;;;5054222;28;20799;-75
2021/12/22 01:37:33;;;;;;;412.23;57.47;;;-3.70;99.90;;;;;;5052813;28;20471;-75
2021/12/22 01:40:01;;;;;;;131.83;41.67;;;-3.70;99.90;;;;;;5053958;28;20452;-75
2021/12/22 01:42:30;;;;;;;275.20;41.20;;;-3.70;99.90;;;;;;5052319;28;20987;-75
2021/12/22 01:45:25;;;;;;;206.87;45.30;;;-3.70;99.90;;;;;;5052681;28;20591;-75
2021/12/22 01:50:42;;;;;;;316.87;66.10;;;-3.70;99.90;;;;;;5052970;28;20537;-75
2021/12/22 01:53:40;;;;;;;343.73;57.03;;;-3.70;99.90;;;;;;5053767;28;20930;-75
2021/12/22 01:56:19;;;;;;;279.27;51.63;;;-3.70;99.90;;;;;;5052586;28;20927;-74
2021/12/22 01:58:50;;;;;;;284.20;48.23;;;-3.80;99.90;;;;;;5053994;28;20450;-75
2021/12/22 02:01:19;;;;;;;187.03;40.13;;;-3.70;99.90;;;;;;5052551;28;20816;-75
2021/12/22 02:03:49;;;;;;;262.53;42.97;;;-3.80;99.90;;;;;;5052340;28;20970;-75
2021/12/22 02:06:19;;;;;;;105.60;40.97;;;-3.80;99.90;;;;;;5052379;28;20971;-75
2021/12/22 02:08:49;;;;;;;259.10;49.83;;;-3.80;99.90;;;;;;5053156;28;20480;-75
2021/12/22 02:11:18;;;;;;;185.53;40.43;;;-3.80;99.90;;;;;;5053496;28;20461;-75
2021/12/22 02:13:53;;;;;;;309.10;48.00;;;-3.80;99.90;;;;;;5053537;28;20571;-75
2021/12/22 02:16:26;;;;;;;219.97;51.47;;;-3.80;99.90;;;;;;5053752;28;20792;-74
2021/12/22 02:18:55;;;;;;;180.47;39.87;;;-3.80;99.90;;;;;;5053546;28;20502;-75
2021/12/22 02:21:29;;;;;;;221.07;41.37;;;-3.80;99.90;;;;;;5052247;28;20474;-75
2021/12/22 02:23:59;;;;;;;249.77;42.40;;;-3.80;99.90;;;;;;5053902;28;20889;-74
2021/12/22 02:26:34;;;;;;;265.53;42.60;;;-3.80;99.90;;;;;;5052038;28;20479;-75
2021/12/22 02:29:05;;;;;;;259.73;41.27;;;-3.80;99.90;;;;;;5052433;28;20564;-75
2021/12/22 02:31:40;;;;;;;404.40;63.87;;;-3.80;99.90;;;;;;5053872;28;20429;-74
2021/12/22 02:34:14;;;;;;;371.50;47.67;;;-3.80;99.90;;;;;;5053454;28;20802;-75
2021/12/22 02:36:45;;;;;;;227.23;35.53;;;-3.80;99.90;;;;;;5132213;22;20440;-93
2021/12/22 02:39:13;;;;;;;236.33;36.17;;;-3.80;99.90;;;;;;5039368;28;20495;-90
2021/12/22 02:41:42;;;;;;;159.67;37.73;;;-3.80;99.90;;;;;;5039903;28;20496;-91
2021/12/22 02:44:13;;;;;;;363.97;52.53;;;-3.80;99.90;;;;;;5042772;28;20445;-91
2021/12/22 02:46:42;;;;;;;252.73;43.63;;;-3.80;99.90;;;;;;5038617;28;20488;-91
2021/12/22 02:49:11;;;;;;;258.40;51.00;;;-3.70;99.90;;;;;;5037470;28;20449;-91
2021/12/22 02:51:40;;;;;;;255.43;53.23;;;-3.80;99.90;;;;;;5037803;28;20545;-91
2021/12/22 02:54:16;;;;;;;264.47;51.13;;;-3.80;99.90;;;;;;5036493;28;20500;-91
2021/12/22 02:56:56;;;;;;;194.37;37.20;;;-3.80;99.90;;;;;;5037504;28;20475;-92
2021/12/22 02:59:46;;;;;;;295.57;43.50;;;-3.80;99.90;;;;;;5038701;28;20437;-92
2021/12/22 03:02:24;;;;;;;182.73;47.70;;;-3.70;99.90;;;;;;5021663;28;20450;-91
2021/12/22 03:04:57;;;;;;;379.87;59.13;;;-3.70;99.90;;;;;;5037447;28;20477;-91
2021/12/22 03:07:29;;;;;;;294.30;50.47;;;-3.70;99.90;;;;;;5037502;28;20472;-91
2021/12/22 03:10:02;;;;;;;223.83;45.90;;;-3.70;99.90;;;;;;5036886;28;20547;-91
2021/12/22 03:12:35;;;;;;;124.47;36.17;;;-3.70;99.90;;;;;;5053446;28;20533;-91
2021/12/22 03:15:06;;;;;;;308.23;55.80;;;-3.70;99.90;;;;;;5036728;28;20439;-91
2021/12/22 03:17:35;;;;;;;178.37;42.27;;;-3.70;99.90;;;;;;5036794;28;20465;-91
2021/12/22 03:20:06;;;;;;;316.33;36.73;;;-3.70;99.90;;;;;;5036827;28;20490;-91
2021/12/22 03:22:36;;;;;;;251.07;41.33;;;-3.70;99.90;;;;;;5036727;28;20438;-91
2021/12/22 03:25:13;;;;;;;212.23;47.60;;;-3.70;99.90;;;;;;5036861;28;20451;-91
2021/12/22 03:27:42;;;;;;;287.10;43.23;;;-3.70;99.90;;;;;;5036218;28;20508;-91
2021/12/22 03:30:12;;;;;;;235.67;45.33;;;-3.70;99.90;;;;;;5036611;28;20478;-91
2021/12/22 03:32:41;;;;;;;307.10;54.83;;;-3.70;99.90;;;;;;5037626;28;20442;-92
2021/12/22 03:35:15;;;;;;;297.87;46.40;;;-3.70;99.90;;;;;;5036828;28;20504;-91
2021/12/22 03:37:43;;;;;;;248.93;52.70;;;-3.70;99.90;;;;;;5054422;28;21060;-91
2021/12/22 03:40:13;;;;;;;297.63;48.90;;;-3.60;99.90;;;;;;5038010;28;20505;-91
2021/12/22 03:42:42;;;;;;;296.00;44.73;;;-3.70;99.90;;;;;;5044314;28;20451;-91
2021/12/22 03:45:10;;;;;;;342.10;47.87;;;-3.70;99.90;;;;;;5054839;28;20453;-91
2021/12/22 03:47:39;;;;;;;242.57;59.20;;;-3.70;99.90;;;;;;5059444;28;20465;-91
2021/12/22 03:50:09;;;;;;;254.93;57.33;;;-3.70;99.90;;;;;;5077179;28;20451;-92
2021/12/22 03:52:38;;;;;;;157.80;35.60;;;-3.60;99.90;;;;;;5060766;28;20441;-91
2021/12/22 03:55:09;;;;;;;348.50;47.60;;;-3.60;99.90;;;;;;5060606;28;20426;-92
2021/12/22 03:57:39;;;;;;;248.17;49.10;;;-3.70;99.90;;;;;;5059939;28;20476;-91
2021/12/22 04:00:14;;;;;;;226.83;37.03;;;-3.60;99.90;;;;;;5051911;28;20450;-91
2021/12/22 04:02:42;;;;;;;304.70;52.13;;;-3.60;99.90;;;;;;5039576;28;20475;-91
2021/12/22 04:05:12;;;;;;;297.90;43.17;;;-3.60;99.90;;;;;;5057029;28;20457;-91
2021/12/22 04:07:41;;;;;;;244.13;36.20;;;-3.70;99.90;;;;;;5041289;28;20476;-91
2021/12/22 04:10:19;;;;;;;282.17;38.50;;;-3.60;99.90;;;;;;5041805;28;20453;-91
2021/12/22 04:12:54;;;;;;;306.63;54.30;;;-3.60;99.90;;;;;;5043670;28;20880;-92
2021/12/22 04:15:27;;;;;;;248.97;36.17;;;-3.60;99.90;;;;;;5042117;28;20485;-91
2021/12/22 04:17:56;;;;;;;186.87;36.80;;;-3.60;99.90;;;;;;5042114;28;20992;-91
2021/12/22 04:20:27;;;;;;;207.30;40.80;;;-3.70;99.90;;;;;;5041606;28;20981;-90
2021/12/22 04:22:56;;;;;;;187.20;42.20;;;-3.70;99.90;;;;;;5040147;28;20457;-91
2021/12/22 04:25:24;;;;;;;276.20;41.30;;;-3.70;99.90;;;;;;5040024;28;20478;-91
2021/12/22 04:27:56;;;;;;;181.57;38.63;;;-3.70;99.90;;;;;;5039669;28;20477;-91
2021/12/22 04:30:27;;;;;;;264.07;49.20;;;-3.70;99.90;;;;;;5040056;28;20466;-91
2021/12/22 04:32:55;;;;;;;228.60;42.50;;;-3.70;99.90;;;;;;5039346;28;20533;-91
2021/12/22 04:35:24;;;;;;;296.10;51.90;;;-3.70;99.90;;;;;;5039614;28;20442;-91
2021/12/22 04:37:52;;;;;;;261.30;46.13;;;-3.60;99.90;;;;;;5039211;28;20470;-91
2021/12/22 04:40:20;;;;;;;252.63;49.73;;;-3.60;99.90;;;;;;5039481;28;20500;-91
2021/12/22 04:42:49;;;;;;;352.73;49.23;;;-3.60;99.90;;;;;;5039238;28;20477;-91
2021/12/22 04:45:35;;;;;;;259.27;41.93;;;-3.60;99.90;;;;;;5039560;28;20804;-91
2021/12/22 04:48:06;;;;;;;307.87;48.40;;;-3.60;99.90;;;;;;5056241;28;20515;-91
2021/12/22 04:50:35;;;;;;;273.20;37.27;;;-3.60;99.90;;;;;;5039581;28;20489;-91
2021/12/22 04:53:10;;;;;;;143.37;33.10;;;-3.70;99.90;;;;;;5039331;28;20544;-91
2021/12/22 04:55:38;;;;;;;194.23;34.03;;;-3.70;99.90;;;;;;5039596;28;20441;-92
2021/12/22 04:58:07;;;;;;;140.00;33.53;;;-3.70;99.90;;;;;;5039800;28;20466;-91
2021/12/22 05:00:39;;;;;;;232.10;40.23;;;-3.60;99.90;;;;;;5040650;28;20458;-91
2021/12/22 05:03:08;;;;;;;199.63;39.47;;;-3.70;99.90;;;;;;5041119;28;20550;-91
2021/12/22 05:05:37;;;;;;;190.73;33.73;;;-3.60;99.90;;;;;;5040356;28;20454;-91
2021/12/22 05:08:05;;;;;;;295.80;44.93;;;-3.70;99.90;;;;;;5039517;28;20967;-91
2021/12/22 05:10:34;;;;;;;189.67;46.20;;;-3.60;99.90;;;;;;5039677;28;20560;-91
2021/12/22 05:13:03;;;;;;;140.87;42.20;;;-3.70;99.90;;;;;;5039770;28;20454;-91
2021/12/22 05:15:37;;;;;;;90.93;39.67;;;-3.60;99.90;;;;;;5040266;28;20490;-91
2021/12/22 05:18:25;;;;;;;248.13;34.50;;;-3.60;99.90;;;;;;5058120;28;20476;-90
2021/12/22 05:20:55;;;;;;;184.93;38.60;;;-3.60;99.90;;;;;;5060693;28;20826;-90
2021/12/22 05:23:23;;;;;;;382.73;57.33;;;-3.60;99.90;;;;;;5041611;28;20546;-91
2021/12/22 05:25:51;;;;;;;248.90;38.83;;;-3.60;99.90;;;;;;5041497;28;20449;-91
2021/12/22 05:28:20;;;;;;;173.37;41.87;;;-3.60;99.90;;;;;;5042168;28;20549;-91
2021/12/22 05:30:48;;;;;;;178.30;38.27;;;-3.60;99.90;;;;;;5039456;28;20545;-91
2021/12/22 05:33:18;;;;;;;109.90;40.43;;;-3.60;99.90;;;;;;5038829;28;20450;-91
2021/12/22 05:35:46;;;;;;;554.70;66.67;;;-3.60;99.90;;;;;;5038710;28;20457;-92
2021/12/22 05:38:17;;;;;;;227.40;44.27;;;-3.60;99.90;;;;;;5038403;28;20870;-91
2021/12/22 05:40:46;;;;;;;325.17;50.23;;;-3.70;99.90;;;;;;5038293;28;20450;-91
2021/12/22 05:43:14;;;;;;;213.97;46.93;;;-3.60;99.90;;;;;;5055025;28;20541;-91
2021/12/22 05:45:43;;;;;;;210.50;47.73;;;-3.60;99.90;;;;;;5038590;28;20454;-91
2021/12/22 05:48:11;;;;;;;235.07;50.07;;;-3.60;99.90;;;;;;5038304;28;20486;-91
2021/12/22 05:50:44;;;;;;;183.37;37.40;;;-3.70;99.90;;;;;;5038477;28;20452;-92
2021/12/22 05:53:12;;;;;;;238.57;44.77;;;-3.60;99.90;;;;;;5055221;28;20447;-92
2021/12/22 05:55:41;;;;;;;208.90;42.37;;;-3.60;99.90;;;;;;5040854;28;20457;-91
2021/12/22 05:58:10;;;;;;;234.77;40.07;;;-3.60;99.90;;;;;;5042454;28;20466;-92
2021/12/22 06:00:38;;;;;;;364.20;41.53;;;-3.60;99.90;;;;;;5045161;28;20446;-92
2021/12/22 06:03:07;;;;;;;221.70;34.27;;;-3.60;99.90;;;;;;5047787;28;20512;-92
2021/12/22 06:05:35;;;;;;;487.80;65.07;;;-3.60;99.90;;;;;;5046972;28;20446;-92
2021/12/22 06:08:06;;;;;;;318.43;52.40;;;-3.60;99.90;;;;;;5047211;28;20482;-91
2021/12/22 06:10:35;;;;;;;442.93;59.90;;;-3.60;99.90;;;;;;5061400;28;20435;-93
2021/12/22 06:13:05;;;;;;;92.53;41.13;;;-3.60;99.90;;;;;;5061942;28;20429;-91
2021/12/22 06:15:34;;;;;;;319.83;45.40;;;-3.60;99.90;;;;;;5061821;28;20419;-93
2021/12/22 06:18:06;;;;;;;483.67;56.30;;;-3.50;99.90;;;;;;5061274;28;20470;-92
2021/12/22 06:20:37;;;;;;;397.20;68.30;;;-3.50;99.90;;;;;;5053219;28;20454;-92
2021/12/22 06:23:07;;;;;;;288.80;50.67;;;-3.50;99.90;;;;;;5061063;28;20468;-92
2021/12/22 06:25:36;;;;;;;196.47;38.43;;;-3.50;99.90;;;;;;5047671;28;20795;-92
2021/12/22 06:28:06;;;;;;;523.90;78.07;;;-3.50;99.90;;;;;;5042918;28;20495;-92
2021/12/22 06:30:35;;;;;;;224.03;40.13;;;-3.50;99.90;;;;;;5060073;28;20446;-92
2021/12/22 06:33:04;;;;;;;202.17;38.00;;;-3.50;99.90;;;;;;5042697;28;20508;-92
2021/12/22 06:35:35;;;;;;;154.77;41.80;;;-3.50;99.90;;;;;;5053792;28;20426;-92
2021/12/22 06:38:04;;;;;;;172.17;39.30;;;-3.50;99.90;;;;;;5061271;28;20458;-92
2021/12/22 06:40:36;;;;;;;359.97;50.00;;;-3.50;99.90;;;;;;5061486;28;20427;-93
2021/12/22 06:43:05;;;;;;;101.87;36.67;;;-3.40;99.90;;;;;;5064552;23;20498;-70
2021/12/22 06:45:33;;;;;;;223.00;38.70;;;-3.40;99.90;;;;;;5053233;28;20434;-70
2021/12/22 06:48:01;;;;;;;242.13;40.03;;;-3.40;99.90;;;;;;5053516;28;20495;-70
2021/12/22 06:50:30;;;;;;;213.87;41.70;;;-3.40;99.90;;;;;;5046812;28;20466;-70
2021/12/22 06:52:58;;;;;;;263.53;48.70;;;-3.40;99.90;;;;;;5033185;28;20466;-70
2021/12/22 06:55:26;;;;;;;186.77;39.53;;;-3.40;99.90;;;;;;5032939;28;20815;-70
2021/12/22 06:57:56;;;;;;;270.50;50.23;;;-3.40;99.90;;;;;;5033163;28;20917;-70
2021/12/22 07:00:24;;;;;;;191.57;36.97;;;-3.40;99.90;;;;;;5033000;28;20458;-70
2021/12/22 07:02:53;;;;;;;392.73;46.30;;;-3.40;99.90;;;;;;5033502;28;20526;-70
2021/12/22 07:05:21;;;;;;;273.57;46.67;;;-3.40;99.90;;;;;;5031831;28;20955;-70
2021/12/22 07:07:50;;;;;;;116.73;40.13;;;-3.40;99.90;;;;;;5033051;28;20466;-70
2021/12/22 07:10:18;;;;;;;213.77;37.20;;;-3.40;99.90;;;;;;5033109;28;20465;-70
2021/12/22 07:12:47;;;;;;;325.60;66.20;;;-3.40;99.90;;;;;;5033114;28;20454;-70
2021/12/22 07:15:19;;;;;;;254.33;44.80;;;-3.40;99.90;;;;;;5033396;28;20932;-70
2021/12/22 07:17:50;;;;;;;229.17;47.53;;;-3.40;99.90;;;;;;5032958;28;20513;-70
2021/12/22 07:20:19;;;;;;;270.03;47.43;;;-3.40;99.90;;;;;;5013455;28;20535;-70
2021/12/22 07:22:47;;;;;;;244.67;45.30;;;-3.40;99.90;;;;;;5013546;28;20468;-70
2021/12/22 07:25:18;;;;;;;645.20;77.60;;;-3.40;99.90;;;;;;5028123;28;20931;-70
2021/12/22 07:27:46;;;;;;;227.10;41.67;;;-3.40;99.90;;;;;;5033384;28;20557;-70
2021/12/22 07:30:15;;;;;;;169.20;40.13;;;-3.40;99.90;;;;;;5033012;28;20462;-70
2021/12/22 07:32:44;;;;;;;405.03;58.90;;;-3.40;99.90;;;;;;5033296;28;20792;-70
2021/12/22 07:35:18;;;;;;;184.47;34.97;;;-3.30;99.90;;;;;;5033287;28;20442;-70
2021/12/22 07:37:51;;;;;;;274.07;56.87;;;-3.30;99.90;;;;;;5033248;28;20416;-70
2021/12/22 07:40:20;;;;;;;306.90;41.27;;;-3.30;99.90;;;;;;5030529;28;20565;-70
2021/12/22 07:42:48;;;;;;;483.20;66.23;;;-3.30;99.90;;;;;;5036839;28;20454;-70
2021/12/22 07:45:16;;;;;;;399.97;59.33;;;-3.30;99.90;;;;;;5036614;28;20438;-70
2021/12/22 07:47:46;;;;;;;495.23;84.37;;;-3.30;99.90;;;;;;5033324;28;20482;-70
2021/12/22 07:50:14;;;;;;;399.83;63.20;;;-3.30;99.90;;;;;;5036873;28;20458;-70
2021/12/22 07:52:42;;;;;;;382.07;54.47;;;-3.30;99.90;;;;;;5035315;28;20438;-70
2021/12/22 07:55:10;;;;;;;352.93;54.80;;;-3.30;99.90;;;;;;5036519;28;20838;-70
2021/12/22 07:57:39;;;;;;;348.47;52.60;;;-3.30;99.90;;;;;;5036407;28;20443;-71
2021/12/22 08:00:08;;;;;;;340.43;55.87;;;-3.30;99.90;;;;;;5036415;28;20977;-71
2021/12/22 08:02:42;;;;;;;325.03;48.13;;;-3.30;99.90;;;;;;5036015;28;20954;-71
2021/12/22 08:05:32;;;;;;;154.33;35.43;;;-3.20;99.90;;;;;;5016550;28;20434;-71
2021/12/22 08:08:00;;;;;;;515.17;73.50;;;-3.20;99.90;;;;;;5018377;28;20495;-71
2021/12/22 08:10:29;;;;;;;525.77;61.20;;;-3.20;99.90;;;;;;5036089;28;20546;-71
2021/12/22 08:12:57;;;;;;;355.83;46.90;;;-3.20;99.90;;;;;;5034955;28;20457;-71
2021/12/22 08:15:25;;;;;;;196.90;39.50;;;-3.20;99.90;;;;;;5034817;28;20485;-71
2021/12/22 08:17:54;;;;;;;174.60;41.13;;;-3.20;99.90;;;;;;5034859;28;20538;-71
2021/12/22 08:20:24;;;;;;;197.50;55.90;;;-3.20;99.90;;;;;;5034414;28;20458;-71
2021/12/22 08:22:54;;;;;;;484.37;67.47;;;-3.20;99.90;;;;;;5021143;28;20438;-71
2021/12/22 08:25:22;;;;;;;351.80;55.60;;;-3.20;99.90;;;;;;5036081;28;20450;-70
2021/12/22 08:27:51;;;;;;;318.90;62.23;;;-3.10;99.90;;;;;;5036229;28;20450;-71
2021/12/22 08:30:20;;;;;;;410.10;55.50;;;-3.10;99.90;;;;;;5018048;28;20463;-70
2021/12/22 08:32:49;;;;;;;427.97;59.37;;;-3.10;99.90;;;;;;5036524;28;20452;-70
2021/12/22 08:35:20;;;;;;;431.67;63.33;;;-3.10;99.90;;;;;;5034601;28;20820;-70
2021/12/22 08:40:35;;;;;;;193.57;40.47;;;-3.00;99.90;;;;;;5035782;28;20474;-70
2021/12/22 08:43:03;;;;;;;395.67;54.10;;;-3.00;99.90;;;;;;5036027;28;20451;-70
2021/12/22 08:45:32;;;;;;;506.13;76.03;;;-3.00;99.90;;;;;;5035662;28;20458;-71
2021/12/22 08:48:00;;;;;;;459.50;64.57;;;-2.90;99.90;;;;;;5035513;28;20445;-71
2021/12/22 08:50:28;;;;;;;416.80;49.07;;;-2.90;99.90;;;;;;5035493;28;20513;-70
2021/12/22 08:52:56;;;;;;;477.53;62.47;;;-2.90;99.90;;;;;;5034667;28;20523;-71
2021/12/22 08:55:24;;;;;;;642.77;76.07;;;-2.90;99.90;;;;;;5017956;28;20514;-71
2021/12/22 08:57:54;;;;;;;252.00;50.67;;;-2.90;99.90;;;;;;5035451;28;20475;-71
2021/12/22 09:00:22;;;;;;;624.03;80.13;;;-2.90;99.90;;;;;;5035604;28;20466;-71
2021/12/22 09:02:51;;;;;;;432.90;66.70;;;-2.90;99.90;;;;;;5033989;28;20451;-71
2021/12/22 09:05:20;;;;;;;624.77;91.77;;;-2.80;99.90;;;;;;5034874;28;20493;-71
2021/12/22 09:07:48;;;;;;;475.10;68.30;;;-2.80;99.90;;;;;;5034041;28;20454;-71
2021/12/22 09:10:16;;;;;;;188.93;69.53;;;-2.80;99.90;;;;;;5034859;28;20566;-71
2021/12/22 09:12:44;;;;;;;562.03;74.37;;;-2.80;99.90;;;;;;5035048;28;20448;-71
2021/12/22 09:15:17;;;;;;;491.10;62.60;;;-2.70;99.90;;;;;;5033858;28;21022;-71
2021/12/22 09:17:45;;;;;;;439.13;77.00;;;-2.70;99.90;;;;;;5035319;28;20850;-71
2021/12/22 09:20:13;;;;;;;441.00;72.73;;;-2.70;99.90;;;;;;5033446;28;20471;-71
2021/12/22 09:22:42;;;;;;;501.40;80.20;;;-2.60;99.90;;;;;;5034884;28;20470;-71
2021/12/22 09:25:11;;;;;;;485.00;98.43;;;-2.60;99.90;;;;;;5035055;28;20451;-71
2021/12/22 09:27:39;;;;;;;675.93;74.10;;;-2.60;99.90;;;;;;5033568;28;20455;-71
2021/12/22 09:30:09;;;;;;;476.23;88.53;;;-2.60;99.90;;;;;;5034911;28;20496;-71
2021/12/22 09:32:39;;;;;;;349.83;93.47;;;-2.50;99.90;;;;;;5034699;28;20431;-71
2021/12/22 09:35:08;;;;;;;293.33;55.27;;;-2.50;99.90;;;;;;5035075;28;20446;-71
2021/12/22 09:37:36;;;;;;;460.33;74.33;;;-2.50;99.90;;;;;;5017728;28;20451;-71
2021/12/22 09:40:06;;;;;;;538.33;91.37;;;-2.50;99.90;;;;;;5020499;28;20470;-71
2021/12/22 09:42:35;;;;;;;501.17;97.73;;;-2.40;99.90;;;;;;5034447;28;20447;-71
2021/12/22 09:45:04;;;;;;;554.20;90.87;;;-2.40;99.90;;;;;;5034549;28;20530;-71
2021/12/22 09:47:49;;;;;;;507.93;94.57;;;-2.40;99.90;;;;;;5034718;28;20427;-71
2021/12/22 09:50:35;;;;;;;841.63;104.80;;;-2.40;99.90;;;;;;5034804;28;20478;-71
2021/12/22 09:53:03;;;;;;;629.70;103.10;;;-2.30;99.90;;;;;;5034344;28;20455;-71
2021/12/22 09:55:34;;;;;;;419.17;66.70;;;-2.30;99.90;;;;;;5034243;28;20441;-71
2021/12/22 09:58:02;;;;;;;684.40;125.27;;;-2.30;99.90;;;;;;5034555;28;20782;-71
2021/12/22 10:00:33;;;;;;;671.40;122.00;;;-2.20;99.90;;;;;;5033769;28;21058;-71
2021/12/22 10:03:02;;;;;;;662.77;128.10;;;-2.20;99.90;;;;;;5016037;28;20812;-71
2021/12/22 10:05:31;;;;;;;435.03;87.33;;;-2.20;99.90;;;;;;5016304;28;20458;-71
2021/12/22 10:08:07;;;;;;;771.33;141.80;;;-2.20;99.90;;;;;;5033944;28;20445;-71
2021/12/22 10:10:39;;;;;;;467.50;67.13;;;-2.20;99.90;;;;;;5032550;28;20482;-71
2021/12/22 10:13:09;;;;;;;397.33;84.13;;;-2.10;99.90;;;;;;5034393;28;20511;-71
2021/12/22 10:15:39;;;;;;;555.27;92.70;;;-2.10;99.90;;;;;;5033869;28;20475;-71
2021/12/22 10:18:09;;;;;;;528.73;96.97;;;-2.10;99.90;;;;;;5033768;28;20439;-71
2021/12/22 10:20:39;;;;;;;655.83;109.93;;;-2.10;99.90;;;;;;5015852;28;20553;-71
2021/12/22 10:23:22;;;;;;;677.17;88.97;;;-2.00;99.90;;;;;;5034408;28;20419;-71
2021/12/22 10:25:52;;;;;;;653.13;115.30;;;-2.00;99.90;;;;;;5033346;28;20530;-71
2021/12/22 10:28:22;;;;;;;402.53;65.23;;;-2.00;99.90;;;;;;5034095;28;20873;-71
2021/12/22 10:30:55;;;;;;;657.07;121.80;;;-1.90;99.90;;;;;;5033684;28;20540;-71
2021/12/22 10:33:25;;;;;;;781.80;136.17;;;-1.90;99.90;;;;;;5034218;28;20428;-71
2021/12/22 10:36:01;;;;;;;628.43;140.90;;;-1.90;99.90;;;;;;5033754;28;20915;-71
2021/12/22 10:38:32;;;;;;;497.87;100.70;;;-1.90;99.90;;;;;;5034067;28;20419;-71
2021/12/22 10:41:04;;;;;;;318.30;73.20;;;-1.90;99.90;;;;;;5032252;28;20477;-71
2021/12/22 10:43:34;;;;;;;554.33;80.93;;;-1.80;99.90;;;;;;5033839;28;20483;-71
2021/12/22 10:46:05;;;;;;;362.90;79.40;;;-1.80;99.90;;;;;;5033761;28;20435;-71
2021/12/22 10:51:27;;;;;;;590.10;102.77;;;-1.80;99.90;;;;;;5033759;28;20462;-71
2021/12/22 10:53:57;;;;;;;321.33;49.87;;;-1.80;99.90;;;;;;5015647;28;20812;-71
2021/12/22 10:56:29;;;;;;;794.23;131.03;;;-1.80;99.90;;;;;;5031281;28;20543;-71
2021/12/22 10:59:07;;;;;;;1019.20;175.13;;;-1.70;99.90;;;;;;5033412;28;21035;-71
2021/12/22 11:01:38;;;;;;;540.70;112.23;;;-1.70;99.90;;;;;;5033232;28;20490;-71
2021/12/22 11:04:15;;;;;;;720.97;96.10;;;-1.70;99.90;;;;;;5033231;28;20857;-71
2021/12/22 11:06:45;;;;;;;581.83;120.03;;;-1.60;99.90;;;;;;5033652;28;20429;-71
2021/12/22 11:09:15;;;;;;;415.03;107.30;;;-1.60;99.90;;;;;;5033244;28;20450;-71
2021/12/22 11:11:46;;;;;;;685.47;112.03;;;-1.60;99.90;;;;;;5033217;28;20465;-71
2021/12/22 11:14:17;;;;;;;774.27;118.37;;;-1.50;99.90;;;;;;5033266;28;20518;-71
2021/12/22 11:17:03;;;;;;;672.53;104.77;;;-1.50;99.90;;;;;;5037613;28;20454;-71
2021/12/22 11:19:34;;;;;;;600.07;57.70;;;-1.50;99.90;;;;;;5037305;28;20901;-71
2021/12/22 11:22:10;;;;;;;594.97;116.23;;;-1.50;99.90;;;;;;5037027;28;20527;-71
2021/12/22 11:24:43;;;;;;;736.53;141.50;;;-1.50;99.90;;;;;;5037099;28;20442;-71
2021/12/22 11:27:12;;;;;;;737.87;101.80;;;-1.50;99.90;;;;;;5037172;28;20415;-71
2021/12/22 11:29:44;;;;;;;663.97;80.50;;;-1.50;99.90;;;;;;5037464;28;21048;-71
2021/12/22 11:32:17;;;;;;;524.43;133.60;;;-1.50;99.90;;;;;;5023721;28;20455;-71
2021/12/22 11:34:49;;;;;;;824.90;154.30;;;-1.50;99.90;;;;;;5037207;28;20454;-71
2021/12/22 11:37:20;;;;;;;825.03;122.97;;;-1.40;99.90;;;;;;5037352;28;20522;-71
2021/12/22 11:39:49;;;;;;;798.67;103.27;;;-1.40;99.90;;;;;;5035266;28;20455;-70
2021/12/22 11:42:19;;;;;;;898.33;154.73;;;-1.40;99.90;;;;;;5019281;28;20466;-71
2021/12/22 11:44:52;;;;;;;803.17;140.40;;;-1.40;99.90;;;;;;5037262;28;20454;-71
2021/12/22 11:47:21;;;;;;;701.13;106.20;;;-1.30;99.90;;;;;;5036990;28;20880;-71
2021/12/22 11:49:51;;;;;;;942.03;169.40;;;-1.30;99.90;;;;;;5036539;28;20498;-71
2021/12/22 11:52:38;;;;;;;1309.17;191.00;;;-1.30;99.90;;;;;;5036720;28;20435;-71
2021/12/22 11:55:09;;;;;;;1065.00;182.13;;;-1.20;99.90;;;;;;5034536;28;20505;-71
2021/12/22 11:57:38;;;;;;;701.47;87.77;;;-1.20;99.90;;;;;;5036637;28;20420;-71
2021/12/22 12:00:26;;;;;;;806.53;136.27;;;-1.20;99.90;;;;;;5036577;28;20478;-71
2021/12/22 12:02:55;;;;;;;715.67;116.50;;;-1.10;99.90;;;;;;5036906;28;20427;-71
2021/12/22 12:05:25;;;;;;;696.67;119.27;;;-1.10;99.90;;;;;;5036262;28;20443;-71
2021/12/22 12:07:56;;;;;;;823.07;125.30;;;-1.10;99.90;;;;;;5035115;28;20566;-71
2021/12/22 12:10:43;;;;;;;1015.33;148.43;;;-1.10;99.90;;;;;;5036577;28;20498;-71
2021/12/22 12:13:23;;;;;;;545.87;75.13;;;-1.00;99.90;;;;;;5037055;28;20447;-70
2021/12/22 12:22:35;;;;;;;357.40;61.37;;;-1.00;99.90;;;;;;5017973;28;20475;-71
2021/12/22 12:25:13;;;;;;;1018.40;169.73;;;-1.00;99.90;;;;;;5033095;28;20457;-71
2021/12/22 12:27:44;;;;;;;683.07;112.67;;;-0.90;99.90;;;;;;5035803;28;20879;-71
2021/12/22 12:30:16;;;;;;;919.83;162.87;;;-0.90;99.90;;;;;;5036295;28;21013;-71
2021/12/22 12:33:13;;;;;;;694.90;77.43;;;-0.80;99.90;;;;;;5036746;28;20423;-71
2021/12/22 12:35:59;;;;;;;901.43;116.67;;;-0.80;99.90;;;;;;5036528;28;20490;-71
2021/12/22 12:38:30;;;;;;;853.80;138.90;;;-0.80;99.90;;;;;;5036436;28;20446;-71
2021/12/22 12:41:27;;;;;;;698.03;74.73;;;-0.80;99.90;;;;;;5035866;28;20974;-71
2021/12/22 12:44:01;;;;;;;657.60;119.03;;;-0.70;99.90;;;;;;5034495;28;20877;-71
2021/12/22 12:46:40;;;;;;;1084.60;153.47;;;-0.70;99.90;;;;;;5034557;28;20944;-71
2021/12/22 12:49:34;;;;;;;941.50;101.90;;;-0.70;99.90;;;;;;5034263;28;20443;-71